Time;durP1;ratioP1;P1;durP2;ratioP2;P2;SDS_P1;SDS_P2;PMS_P1;PMS_P2;Temp;Humidity;BMP_temperature;BMP_pressure;BME280_temperature;BME280_humidity;BME280_pressure;Samples;Min_cycle;Max_cycle;Signal;HPM_P1;HPM_P2
2023/12/24 00:01:05;;;;;;;11.60;7.30;;;;;;;-141.97;62.89;45960.66;5090689;28;20170;-79
2023/12/24 00:03:31;;;;;;;12.63;7.20;;;;;;;-141.97;62.66;46060.56;5091075;28;20186;-80
2023/12/24 00:05:56;;;;;;;11.00;6.83;;;;;;;-141.97;62.51;46450.59;5089182;28;20172;-79
2023/12/24 00:08:22;;;;;;;13.07;6.53;;;;;;;-141.97;61.98;45941.44;5089483;28;20249;-78
2023/12/24 00:10:47;;;;;;;11.53;6.60;;;;;;;-141.97;61.71;46012.53;5090687;28;20617;-78
2023/12/24 00:13:13;;;;;;;10.70;5.57;;;;;;;-141.97;60.77;46050.97;5090688;28;20152;-78
2023/12/24 00:15:38;;;;;;;9.60;5.20;;;;;;;-141.97;60.47;45885.72;5090581;28;20647;-78
2023/12/24 00:18:04;;;;;;;12.23;6.70;;;;;;;-141.97;60.86;46389.09;5089353;28;20167;-79
2023/12/24 00:20:29;;;;;;;11.63;6.67;;;;;;;-141.97;60.56;46400.63;5090429;28;20170;-79
2023/12/24 00:23:08;;;;;;;8.47;5.67;;;;;;;-141.97;60.49;45941.44;5090516;28;20620;-80
2023/12/24 00:25:38;;;;;;;10.83;5.80;;;;;;;-141.97;60.24;46404.47;5091010;28;20488;-80
2023/12/24 00:28:04;;;;;;;11.97;5.90;;;;;;;-141.97;60.39;45878.06;5091059;28;20587;-79
2023/12/24 00:30:30;;;;;;;8.60;4.77;;;;;;;-141.97;59.93;45891.50;5090166;28;20172;-80
2023/12/24 00:32:56;;;;;;;10.17;4.97;;;;;;;-141.97;60.25;45943.38;5090594;28;21085;-81
2023/12/24 00:35:21;;;;;;;7.50;4.40;;;;;;;-141.97;60.21;46058.63;5090456;28;20175;-79
2023/12/24 00:37:48;;;;;;;9.17;4.50;;;;;;;-141.97;60.40;45866.53;5090672;28;20166;-79
2023/12/24 00:40:14;;;;;;;6.57;4.03;;;;;;;-141.97;60.71;45874.22;5090325;28;20216;-78
2023/12/24 00:42:41;;;;;;;5.83;3.73;;;;;;;-141.97;60.87;45887.66;5089189;28;20234;-79
2023/12/24 00:45:08;;;;;;;8.03;4.37;;;;;;;-141.97;60.94;46264.22;5089196;28;20254;-79
2023/12/24 00:47:33;;;;;;;7.47;4.47;;;;;;;-141.97;61.38;46029.81;5089269;28;20160;-78
2023/12/24 00:49:59;;;;;;;7.67;4.57;;;;;;;-141.97;62.20;46035.59;5090196;28;20190;-79
2023/12/24 00:52:24;;;;;;;6.63;4.17;;;;;;;-141.97;62.98;46043.28;5092354;28;20172;-79
2023/12/24 00:54:50;;;;;;;6.47;3.77;;;;;;;-141.97;62.67;46198.91;5092759;28;20168;-79
2023/12/24 00:57:15;;;;;;;7.07;4.77;;;;;;;-141.97;63.13;45862.69;5094170;28;20656;-79
2023/12/24 00:59:40;;;;;;;10.33;5.37;;;;;;;-141.97;63.41;45997.16;5094014;28;20283;-79
2023/12/24 01:02:06;;;;;;;7.40;4.83;;;;;;;-141.97;63.28;46246.94;5092604;28;20164;-78
2023/12/24 01:04:31;;;;;;;9.43;4.33;;;;;;;-141.97;63.85;45981.78;5092419;28;20179;-79
2023/12/24 01:06:57;;;;;;;10.03;5.00;;;;;;;-141.97;64.14;45928.00;5093638;28;20310;-80
2023/12/24 01:09:23;;;;;;;8.20;4.47;;;;;;;-141.97;64.45;45908.78;5092144;28;20190;-80
2023/12/24 01:11:49;;;;;;;7.67;4.23;;;;;;;-141.97;63.67;46198.91;5093620;28;20251;-80
2023/12/24 01:14:14;;;;;;;8.53;3.93;;;;;;;-141.97;63.45;45985.63;5092222;28;20239;-80
2023/12/24 01:16:40;;;;;;;8.60;4.87;;;;;;;-141.97;62.63;46500.56;5092126;28;20625;-80
2023/12/24 01:19:06;;;;;;;7.30;4.17;;;;;;;-141.97;61.78;46035.59;5093381;28;20154;-79
2023/12/24 01:21:31;;;;;;;7.97;4.30;;;;;;;-141.97;61.06;45899.19;5093221;28;20246;-79
2023/12/24 01:23:56;;;;;;;7.97;3.57;;;;;;;-141.97;60.15;46331.47;5092061;28;20255;-79
2023/12/24 01:26:22;;;;;;;6.93;3.57;;;;;;;-141.97;59.80;45977.94;5093022;28;20251;-79
2023/12/24 01:28:47;;;;;;;8.50;3.87;;;;;;;-141.97;59.64;45818.50;5093366;28;20245;-80
2023/12/24 01:31:13;;;;;;;5.40;2.93;;;;;;;-141.97;58.70;46269.97;5093500;28;20546;-80
2023/12/24 01:33:38;;;;;;;5.53;3.10;;;;;;;-141.97;58.66;46004.84;5093193;28;20171;-79
2023/12/24 01:36:04;;;;;;;6.10;3.50;;;;;;;-141.97;58.67;45995.25;5093067;28;20547;-79
2023/12/24 01:38:29;;;;;;;7.30;3.03;;;;;;;-141.97;58.42;45856.91;5093148;28;20156;-80
2023/12/24 01:40:55;;;;;;;4.93;2.90;;;;;;;-141.97;57.83;46039.44;5093495;28;20231;-80
2023/12/24 01:43:20;;;;;;;5.47;3.70;;;;;;;-141.97;57.89;46246.94;5092580;28;20619;-79
2023/12/24 01:45:45;;;;;;;5.00;3.10;;;;;;;-141.97;57.55;46323.78;5093092;28;20156;-79
2023/12/24 01:48:17;;;;;;;5.27;3.50;;;;;;;-141.97;57.43;45862.69;5093017;28;20245;-78
2023/12/24 01:50:45;;;;;;;5.97;3.47;;;;;;;-141.97;57.03;45881.91;5093187;28;20164;-79
2023/12/24 01:53:11;;;;;;;4.60;3.40;;;;;;;-141.97;56.76;45903.03;5093018;28;20269;-79
2023/12/24 01:55:38;;;;;;;7.47;3.70;;;;;;;-141.97;56.45;46002.94;5091556;28;20171;-78
2023/12/24 01:58:04;;;;;;;7.40;4.20;;;;;;;-141.97;56.84;46018.28;5092961;28;20172;-78
2023/12/24 02:00:30;;;;;;;5.63;3.63;;;;;;;-141.97;56.86;45985.63;5091682;28;20584;-78
2023/12/24 02:02:55;;;;;;;5.17;3.53;;;;;;;-141.97;56.33;46302.66;5091077;28;20183;-78
2023/12/24 02:05:21;;;;;;;6.20;3.87;;;;;;;-141.97;56.24;45805.06;5092943;28;20192;-79
2023/12/24 02:07:47;;;;;;;8.03;4.30;;;;;;;-141.97;56.33;45949.13;5091856;28;20172;-79
2023/12/24 02:10:13;;;;;;;5.03;3.37;;;;;;;-141.97;56.85;45806.97;5092829;28;20206;-79
2023/12/24 02:12:39;;;;;;;7.80;3.57;;;;;;;-141.97;56.59;45810.81;5091405;28;20171;-79
2023/12/24 02:15:05;;;;;;;5.37;3.37;;;;;;;-141.97;56.09;45866.53;5091264;28;20620;-79
2023/12/24 02:17:32;;;;;;;5.00;3.50;;;;;;;-141.97;56.26;46227.72;5092266;28;20196;-80
2023/12/24 02:19:57;;;;;;;6.67;3.50;;;;;;;-141.97;55.45;45974.09;5092266;28;20593;-80
2023/12/24 02:22:23;;;;;;;4.67;3.30;;;;;;;-141.97;55.63;46024.06;5092335;28;20164;-79
2023/12/24 02:24:49;;;;;;;3.90;2.67;;;;;;;-141.97;55.70;46189.28;5092420;28;20160;-80
2023/12/24 02:27:31;;;;;;;4.63;3.20;;;;;;;-141.97;55.53;45939.53;5092259;28;20596;-80
2023/12/24 02:30:05;;;;;;;5.17;3.33;;;;;;;-141.97;55.40;46250.78;5090724;28;20199;-80
2023/12/24 02:32:34;;;;;;;5.83;3.50;;;;;;;-141.97;55.30;45805.06;5091938;28;20180;-79
2023/12/24 02:35:02;;;;;;;7.07;4.07;;;;;;;-141.97;55.66;45899.19;5090593;28;20569;-79
2023/12/24 02:37:27;;;;;;;9.00;3.50;;;;;;;-141.97;55.44;45964.50;5091702;28;20164;-80
2023/12/24 02:39:53;;;;;;;6.53;3.57;;;;;;;-141.97;54.76;45851.16;5090056;28;20300;-79
2023/12/24 02:42:18;;;;;;;7.37;3.83;;;;;;;-141.97;54.44;46515.91;5091982;28;20168;-79
2023/12/24 02:44:43;;;;;;;5.63;3.13;;;;;;;-141.97;54.30;45997.16;5090126;28;20168;-80
2023/12/24 02:47:09;;;;;;;5.93;2.80;;;;;;;-141.97;53.72;45956.81;5090308;28;20628;-79
2023/12/24 02:49:34;;;;;;;5.33;3.30;;;;;;;-141.97;53.89;45835.78;5091447;28;20249;-79
2023/12/24 02:52:00;;;;;;;5.90;3.83;;;;;;;-141.97;54.42;46245.00;5091900;28;20184;-78
2023/12/24 02:54:25;;;;;;;5.33;3.40;;;;;;;-141.97;54.43;46364.13;5091919;28;20183;-79
2023/12/24 02:56:50;;;;;;;5.13;3.43;;;;;;;-141.97;55.32;45864.59;5090639;28;20589;-80
2023/12/24 02:59:16;;;;;;;6.97;3.77;;;;;;;-141.97;55.49;46381.41;5090059;28;20251;-78
2023/12/24 03:01:41;;;;;;;5.60;3.03;;;;;;;-141.97;54.66;45793.53;5091643;28;20617;-79
2023/12/24 03:04:07;;;;;;;6.90;3.83;;;;;;;-141.97;54.68;46366.06;5091287;28;20175;-79
2023/12/24 03:06:32;;;;;;;8.47;3.97;;;;;;;-141.97;54.99;46020.22;5091117;28;20257;-79
2023/12/24 03:08:58;;;;;;;6.13;3.70;;;;;;;-141.97;54.68;46001.00;5072831;28;20214;-79
2023/12/24 03:11:25;;;;;;;7.23;3.90;;;;;;;-141.97;55.15;45997.16;5091338;28;20616;-79
2023/12/24 03:13:50;;;;;;;6.60;3.40;;;;;;;-141.97;55.06;45782.00;5089272;28;20180;-80
2023/12/24 03:16:17;;;;;;;6.03;3.10;;;;;;;-141.97;54.93;46354.53;5090942;28;20160;-79
2023/12/24 03:18:42;;;;;;;5.03;3.23;;;;;;;-141.97;54.80;45951.06;5090884;28;20604;-78
2023/12/24 03:21:08;;;;;;;5.93;3.03;;;;;;;-141.97;55.00;46337.22;5090855;28;20168;-79
2023/12/24 03:23:33;;;;;;;5.63;3.27;;;;;;;-141.97;54.94;46287.28;5090822;28;20317;-78
2023/12/24 03:25:58;;;;;;;6.23;2.90;;;;;;;-141.97;54.37;45849.25;5090994;28;20197;-78
2023/12/24 03:28:24;;;;;;;4.77;2.80;;;;;;;-141.97;54.49;46348.75;5091043;28;20608;-79
2023/12/24 03:30:49;;;;;;;4.77;2.83;;;;;;;-141.97;53.86;46001.00;5089181;28;20180;-77
2023/12/24 03:33:14;;;;;;;5.03;3.03;;;;;;;-141.97;53.53;46487.09;5090735;28;20251;-79
2023/12/24 03:35:41;;;;;;;8.03;2.97;;;;;;;-141.97;53.59;46416.00;5090490;28;20160;-77
2023/12/24 03:38:07;;;;;;;4.40;2.90;;;;;;;-141.97;53.16;46006.78;5089161;28;20215;-77
2023/12/24 03:40:32;;;;;;;5.47;2.63;;;;;;;-141.97;52.80;45735.91;5090112;28;20302;-78
2023/12/24 03:42:57;;;;;;;2.80;2.20;;;;;;;-141.97;52.57;45964.50;5090518;28;20171;-78
2023/12/24 03:45:23;;;;;;;3.67;2.67;;;;;;;-141.97;52.77;45997.16;5090392;28;20160;-79
2023/12/24 03:47:49;;;;;;;4.57;2.37;;;;;;;-141.97;52.48;45745.50;5090501;28;20620;-78
2023/12/24 03:50:14;;;;;;;3.27;2.03;;;;;;;-141.97;52.20;45855.00;5090934;28;20259;-79
2023/12/24 03:52:40;;;;;;;3.40;2.23;;;;;;;-141.97;52.05;46018.28;5093764;28;20156;-79
2023/12/24 03:55:05;;;;;;;4.57;3.00;;;;;;;-141.97;51.21;46396.78;5095259;28;20239;-77
2023/12/24 03:57:31;;;;;;;5.83;4.00;;;;;;;-141.97;51.04;45789.69;5094170;28;20167;-76
2023/12/24 03:59:56;;;;;;;4.73;2.97;;;;;;;-141.97;51.20;45762.78;5092965;28;20175;-78
2023/12/24 04:02:24;;;;;;;3.17;2.30;;;;;;;-141.97;50.87;46135.50;5093952;28;20168;-77
2023/12/24 04:04:50;;;;;;;2.63;1.97;;;;;;;-141.97;50.86;46158.53;5091105;28;20168;-78
2023/12/24 04:07:16;;;;;;;2.40;1.80;;;;;;;-141.97;50.69;45824.25;5090791;28;20271;-78
2023/12/24 04:09:42;;;;;;;2.80;2.07;;;;;;;-141.97;50.67;46364.13;5090768;28;20241;-79
2023/12/24 04:12:08;;;;;;;4.07;1.93;;;;;;;-141.97;50.09;46394.88;5091073;28;20184;-78
2023/12/24 04:14:39;;;;;;;2.83;1.70;;;;;;;-141.97;49.78;45933.75;5091090;28;20626;-80
2023/12/24 04:17:05;;;;;;;2.40;1.73;;;;;;;-141.97;49.65;45812.72;5090766;28;20171;-78
2023/12/24 04:19:31;;;;;;;2.90;1.80;;;;;;;-141.97;49.60;45976.03;5089672;28;20164;-78
2023/12/24 04:21:56;;;;;;;3.10;2.03;;;;;;;-141.97;49.44;45785.84;5091183;28;20193;-79
2023/12/24 04:24:22;;;;;;;2.30;1.90;;;;;;;-141.97;49.45;46354.53;5089303;28;20228;-79
2023/12/24 04:26:49;;;;;;;3.47;2.07;;;;;;;-141.97;48.76;45776.22;5095164;28;20160;-79
2023/12/24 04:29:14;;;;;;;5.40;3.47;;;;;;;-141.97;49.15;45735.91;5094572;28;20192;-79
2023/12/24 04:31:40;;;;;;;5.00;3.50;;;;;;;-141.97;48.95;46004.84;5094716;28;20160;-79
2023/12/24 04:34:06;;;;;;;3.10;2.13;;;;;;;-141.97;48.76;46102.81;5094452;28;20168;-79
2023/12/24 04:36:33;;;;;;;4.87;2.67;;;;;;;-141.97;48.62;46410.25;5095299;28;20175;-79
2023/12/24 04:38:58;;;;;;;3.50;2.37;;;;;;;-141.97;48.67;46004.84;5095166;28;20612;-78
2023/12/24 04:41:24;;;;;;;3.53;2.40;;;;;;;-141.97;48.33;46139.34;5093072;28;20249;-79
2023/12/24 04:43:49;;;;;;;3.33;2.30;;;;;;;-141.97;48.43;45991.41;5092771;28;20160;-80
2023/12/24 04:46:14;;;;;;;3.67;2.20;;;;;;;-141.97;48.42;45964.50;5094454;28;20228;-79
2023/12/24 04:48:40;;;;;;;3.53;2.93;;;;;;;-141.97;48.79;46291.13;5094262;28;20195;-79
2023/12/24 04:51:05;;;;;;;2.00;1.80;;;;;;;-141.97;48.36;46392.94;5094323;28;20551;-79
2023/12/24 04:53:31;;;;;;;3.97;2.47;;;;;;;-141.97;48.26;46485.19;5094048;28;20160;-79
2023/12/24 04:55:57;;;;;;;7.47;4.30;;;;;;;-141.97;47.87;45939.53;5094007;28;20182;-79
2023/12/24 04:58:22;;;;;;;12.40;6.23;;;;;;;-141.97;47.95;45908.78;5093792;28;20167;-79
2023/12/24 05:00:47;;;;;;;16.37;7.57;;;;;;;-141.97;48.09;45931.84;5093846;28;20178;-79
2023/12/24 05:03:13;;;;;;;4.53;3.50;;;;;;;-141.97;47.85;45993.31;5093860;28;20619;-79
2023/12/24 05:05:38;;;;;;;3.77;2.50;;;;;;;-141.97;47.71;46004.84;5093808;28;20168;-79
2023/12/24 05:08:04;;;;;;;3.10;2.00;;;;;;;-141.97;47.61;45831.94;5094072;28;20588;-79
2023/12/24 05:10:29;;;;;;;3.17;1.90;;;;;;;-141.97;47.09;46262.28;5092264;28;20200;-79
2023/12/24 05:12:55;;;;;;;2.43;2.00;;;;;;;-141.97;47.52;45878.06;5093577;28;20164;-80
2023/12/24 05:15:20;;;;;;;5.70;3.83;;;;;;;-141.97;47.95;45993.31;5093165;28;20568;-80
2023/12/24 05:17:45;;;;;;;5.37;3.43;;;;;;;-141.97;48.20;45964.50;5094199;28;20593;-79
2023/12/24 05:20:11;;;;;;;5.40;3.40;;;;;;;-141.97;48.15;45845.41;5095244;28;20231;-80
2023/12/24 05:22:36;;;;;;;4.43;2.63;;;;;;;-141.97;48.61;46306.50;5092955;28;20176;-79
2023/12/24 05:25:03;;;;;;;5.30;3.10;;;;;;;-141.97;48.51;45774.31;5094394;28;20168;-79
2023/12/24 05:27:28;;;;;;;4.80;2.83;;;;;;;-141.97;48.63;46396.78;5097392;28;20240;-79
2023/12/24 05:29:54;;;;;;;4.10;2.77;;;;;;;-141.97;48.86;46440.97;5095799;28;20612;-80
2023/12/24 05:32:19;;;;;;;3.40;2.43;;;;;;;-141.97;49.05;46496.72;5095900;28;20168;-79
2023/12/24 05:34:45;;;;;;;3.13;2.57;;;;;;;-141.97;49.10;46425.63;5096062;28;20164;-79
2023/12/24 05:37:11;;;;;;;3.97;2.77;;;;;;;-141.97;49.26;45839.63;5098327;28;20168;-79
2023/12/24 05:39:41;;;;;;;2.40;2.10;;;;;;;-141.97;49.31;46022.13;5092668;28;20554;-80
2023/12/24 05:42:07;;;;;;;4.00;2.60;;;;;;;-141.97;49.60;46027.91;5091859;28;20179;-79
2023/12/24 05:44:34;;;;;;;2.87;2.20;;;;;;;-141.97;49.65;45862.69;5091209;28;20168;-79
2023/12/24 05:47:00;;;;;;;4.43;2.40;;;;;;;-141.97;50.20;45893.41;5093159;28;20177;-79
2023/12/24 05:49:27;;;;;;;4.23;2.40;;;;;;;-141.97;50.52;45728.22;5092803;28;20191;-79
2023/12/24 05:51:53;;;;;;;4.37;2.67;;;;;;;-141.97;50.78;46396.78;5092608;28;20705;-79
2023/12/24 05:54:18;;;;;;;4.17;2.63;;;;;;;-141.97;50.91;46001.00;5093976;28;20168;-80
2023/12/24 05:56:47;;;;;;;3.83;2.63;;;;;;;-141.97;50.78;46116.28;5099254;28;20228;-79
2023/12/24 05:59:12;;;;;;;4.33;2.63;;;;;;;-141.97;51.03;45960.66;5096876;28;20161;-80
2023/12/24 06:01:40;;;;;;;4.13;2.77;;;;;;;-141.97;51.03;45870.38;5098810;28;20250;-80
2023/12/24 06:04:05;;;;;;;3.13;2.50;;;;;;;-141.97;51.19;46212.34;5094667;28;20534;-80
2023/12/24 06:06:31;;;;;;;5.97;4.03;;;;;;;-141.97;51.56;46016.38;5093774;28;20258;-82
2023/12/24 06:08:56;;;;;;;3.57;2.80;;;;;;;-141.97;52.05;46016.38;5097104;28;20655;-80
2023/12/24 06:11:22;;;;;;;2.97;2.40;;;;;;;-141.97;52.52;46022.13;5093245;28;20168;-79
2023/12/24 06:13:47;;;;;;;3.07;2.23;;;;;;;-141.97;52.31;45831.94;5091561;28;20168;-79
2023/12/24 06:16:13;;;;;;;3.13;2.30;;;;;;;-141.97;52.15;46150.84;5092380;28;20164;-78
2023/12/24 06:18:39;;;;;;;3.47;2.60;;;;;;;-141.97;51.97;45851.16;5092289;28;20484;-79
2023/12/24 06:21:05;;;;;;;10.37;4.90;;;;;;;-141.97;51.74;46010.63;5092240;28;20156;-79
2023/12/24 06:23:32;;;;;;;8.33;3.97;;;;;;;-141.97;51.89;46431.38;5092738;28;20152;-81
2023/12/24 06:25:58;;;;;;;5.73;3.20;;;;;;;-141.97;52.00;46008.69;5092986;28;20156;-79
2023/12/24 06:28:24;;;;;;;10.10;5.60;;;;;;;-141.97;52.00;46031.75;5092645;28;20545;-79
2023/12/24 06:30:49;;;;;;;8.93;4.70;;;;;;;-141.97;52.16;45864.59;5091704;28;20270;-79
2023/12/24 06:33:14;;;;;;;8.10;4.03;;;;;;;-141.97;51.69;45891.50;5091041;28;20548;-79
2023/12/24 06:35:40;;;;;;;9.30;6.33;;;;;;;-141.97;51.10;45987.56;5091694;28;20152;-80
2023/12/24 06:38:06;;;;;;;12.90;7.87;;;;;;;-141.97;50.75;45837.72;5091531;28;20222;-79
2023/12/24 06:40:31;;;;;;;5.13;3.60;;;;;;;-141.97;51.33;45697.47;5091234;28;20231;-78
2023/12/24 06:42:57;;;;;;;6.03;3.67;;;;;;;-141.97;51.96;45968.34;5091416;28;20168;-79
2023/12/24 06:45:22;;;;;;;3.87;2.93;;;;;;;-141.97;51.79;45901.09;5091436;28;20251;-78
2023/12/24 06:47:48;;;;;;;4.50;2.70;;;;;;;-141.97;50.81;45879.97;5090239;28;20368;-78
2023/12/24 06:50:13;;;;;;;5.07;3.50;;;;;;;-141.97;50.26;46319.94;5091076;28;20209;-82
2023/12/24 06:52:38;;;;;;;6.70;5.00;;;;;;;-141.97;49.65;46300.72;5091435;28;20195;-80
2023/12/24 06:55:04;;;;;;;8.10;5.47;;;;;;;-141.97;49.10;46150.84;5091567;28;20156;-78
2023/12/24 06:57:29;;;;;;;6.43;3.90;;;;;;;-141.97;47.37;45808.91;5091559;28;20215;-78
2023/12/24 06:59:55;;;;;;;13.00;7.87;;;;;;;-141.97;45.32;45931.84;5091791;28;20156;-80
2023/12/24 07:02:20;;;;;;;8.70;5.17;;;;;;;-141.97;44.02;45929.91;5091750;28;20168;-81
2023/12/24 07:04:46;;;;;;;5.47;3.53;;;;;;;-141.97;44.99;45883.81;5091495;28;20152;-80
2023/12/24 07:07:11;;;;;;;4.37;3.37;;;;;;;-141.97;47.13;45943.38;5093982;28;20174;-88
2023/12/24 07:09:37;;;;;;;5.93;3.73;;;;;;;-141.97;48.36;45968.34;5092242;28;20639;-85
2023/12/24 07:12:02;;;;;;;8.13;3.97;;;;;;;-141.97;49.35;46331.47;5092972;28;20167;-86
2023/12/24 07:14:28;;;;;;;11.00;4.63;;;;;;;-141.97;49.67;45879.97;5092033;28;20229;-85
2023/12/24 07:16:53;;;;;;;23.63;13.20;;;;;;;-141.97;49.37;46356.44;5092292;28;20167;-86
2023/12/24 07:19:18;;;;;;;22.33;11.33;;;;;;;-141.97;48.73;45949.13;5093431;28;20715;-86
2023/12/24 07:21:44;;;;;;;20.00;10.40;;;;;;;-141.97;47.83;46256.53;5091651;28;20163;-83
2023/12/24 07:24:11;;;;;;;6.30;3.93;;;;;;;-141.97;47.70;46250.78;5093317;28;20179;-84
2023/12/24 07:26:36;;;;;;;8.07;4.97;;;;;;;-141.97;47.44;45970.25;5093363;28;20156;-86
2023/12/24 07:29:02;;;;;;;7.23;4.77;;;;;;;-141.97;47.08;46354.53;5097196;28;20192;-87
2023/12/24 07:31:27;;;;;;;9.90;6.37;;;;;;;-141.97;46.69;45837.72;5091792;28;20159;-86
2023/12/24 07:33:53;;;;;;;5.80;4.33;;;;;;;-141.97;46.71;45920.31;5091586;28;20168;-86
2023/12/24 07:36:18;;;;;;;6.13;3.10;;;;;;;-141.97;47.02;45826.19;5089979;28;20179;-86
2023/12/24 07:38:44;;;;;;;6.20;2.90;;;;;;;-141.97;47.26;45962.59;5091308;28;20230;-86
2023/12/24 07:41:09;;;;;;;3.73;2.40;;;;;;;-141.97;47.41;45974.09;5091556;28;20223;-89
2023/12/24 07:43:35;;;;;;;3.93;2.80;;;;;;;-141.97;47.38;45874.22;5089972;28;20646;-86
2023/12/24 07:46:00;;;;;;;10.47;5.67;;;;;;;-141.97;47.72;45728.22;5094693;28;20168;-87
2023/12/24 07:48:26;;;;;;;7.47;5.07;;;;;;;-141.97;48.04;46218.09;5092985;28;20164;-87
2023/12/24 07:50:51;;;;;;;10.90;4.87;;;;;;;-141.97;47.68;45874.22;5090811;28;20616;-89
2023/12/24 07:53:17;;;;;;;10.73;5.83;;;;;;;-141.97;48.01;45735.91;5090311;28;20170;-87
2023/12/24 07:55:42;;;;;;;13.60;7.30;;;;;;;-141.97;47.83;46439.06;5089091;28;20180;-88
2023/12/24 07:58:08;;;;;;;14.33;7.23;;;;;;;-141.97;47.70;45941.44;5092064;28;20174;-88
2023/12/24 08:00:34;;;;;;;26.43;13.07;;;;;;;-141.97;47.57;45701.31;5091517;28;20160;-86
2023/12/24 08:03:00;;;;;;;22.07;10.40;;;;;;;-141.97;47.25;45947.22;5090602;28;20553;-87
2023/12/24 08:05:25;;;;;;;16.43;7.83;;;;;;;-141.97;47.33;45816.56;5093535;28;20171;-87
2023/12/24 08:07:51;;;;;;;6.27;3.27;;;;;;;-141.97;47.26;45870.38;5095871;28;20332;-85
2023/12/24 08:10:17;;;;;;;5.30;3.50;;;;;;;-141.97;47.24;45878.06;5113635;28;20227;-87
2023/12/24 08:12:43;;;;;;;5.40;3.57;;;;;;;-141.97;47.25;46220.03;5113431;28;20199;-86
2023/12/24 08:15:09;;;;;;;5.30;3.03;;;;;;;-141.97;46.70;45655.22;5108089;28;20262;-87
2023/12/24 08:17:34;;;;;;;3.27;2.97;;;;;;;-141.97;46.98;45862.69;5109112;28;20167;-89
2023/12/24 08:19:59;;;;;;;4.53;3.27;;;;;;;-141.97;46.71;46285.34;5105262;28;20166;-87
2023/12/24 08:22:25;;;;;;;4.63;2.63;;;;;;;-141.97;45.02;46181.59;5097047;28;20159;-88
2023/12/24 08:24:50;;;;;;;11.87;6.60;;;;;;;-141.97;45.52;45659.06;5096297;28;20221;-88
2023/12/24 08:27:16;;;;;;;5.43;2.70;;;;;;;-141.97;45.35;46162.38;5098463;28;20193;-88
2023/12/24 08:29:41;;;;;;;7.77;4.30;;;;;;;-141.97;45.37;45881.91;5094364;28;20682;-89
2023/12/24 08:32:07;;;;;;;6.80;3.60;;;;;;;-141.97;44.34;45695.56;5094593;28;20164;-88
2023/12/24 08:34:35;;;;;;;5.00;3.20;;;;;;;-141.97;44.27;45995.25;5091905;28;20175;-87
2023/12/24 08:37:00;;;;;;;13.37;8.57;;;;;;;-141.97;43.23;46108.59;5093204;28;20160;-87
2023/12/24 08:39:26;;;;;;;4.20;2.27;;;;;;;-141.97;43.09;46154.69;5091185;28;20237;-88
2023/12/24 08:41:52;;;;;;;4.00;2.87;;;;;;;-141.97;42.42;45812.72;5088904;28;20232;-88
2023/12/24 08:44:17;;;;;;;5.23;2.63;;;;;;;-141.97;42.11;45778.16;5089928;28;20191;-88
2023/12/24 08:46:45;;;;;;;4.63;2.50;;;;;;;-141.97;42.02;45726.28;5089049;28;20178;-87
2023/12/24 08:49:11;;;;;;;5.13;2.63;;;;;;;-141.97;42.26;45820.41;5090638;28;20236;-86
2023/12/24 08:51:37;;;;;;;11.97;6.40;;;;;;;-141.97;41.95;45897.25;5088571;28;20258;-85
2023/12/24 08:54:02;;;;;;;4.70;3.40;;;;;;;-141.97;41.24;46135.50;5089119;28;20164;-84
2023/12/24 08:56:28;;;;;;;11.30;5.63;;;;;;;-141.97;41.10;45732.06;5088523;28;20255;-85
2023/12/24 08:58:53;;;;;;;6.50;2.83;;;;;;;-141.97;40.98;45691.72;5089969;28;20264;-86
2023/12/24 09:01:18;;;;;;;3.93;2.37;;;;;;;-141.97;40.80;45826.19;5089396;28;20620;-85
2023/12/24 09:03:44;;;;;;;6.63;4.03;;;;;;;-141.97;40.79;45968.34;5088301;28;20175;-87
2023/12/24 09:06:09;;;;;;;3.40;2.40;;;;;;;-141.97;40.49;45732.06;5087872;28;20168;-85
2023/12/24 09:08:35;;;;;;;16.93;7.93;;;;;;;-141.97;40.58;45747.41;5088095;28;20521;-85
2023/12/24 09:11:00;;;;;;;31.90;14.80;;;;;;;-141.97;39.91;45662.91;5088195;28;20171;-84
2023/12/24 09:13:26;;;;;;;3.67;2.33;;;;;;;-141.97;40.16;45856.91;5090447;28;20589;-84
2023/12/24 09:15:52;;;;;;;1.90;1.70;;;;;;;-141.97;39.83;45712.84;5093247;28;20271;-84
2023/12/24 09:18:17;;;;;;;2.97;2.00;;;;;;;-141.97;40.04;45797.38;5091796;28;20168;-84
2023/12/24 09:20:43;;;;;;;2.50;2.00;;;;;;;-141.97;39.33;46024.06;5093428;28;20160;-84
2023/12/24 09:23:08;;;;;;;2.93;2.10;;;;;;;-141.97;39.41;45801.22;5093533;28;20562;-84
2023/12/24 09:25:33;;;;;;;6.37;4.13;;;;;;;-141.97;39.50;45772.41;5093770;28;20237;-85
2023/12/24 09:27:59;;;;;;;2.40;2.00;;;;;;;-141.97;39.84;46246.94;5091689;28;20584;-85
2023/12/24 09:30:24;;;;;;;5.80;3.40;;;;;;;-141.97;39.85;46269.97;5092749;28;20184;-85
2023/12/24 09:32:50;;;;;;;2.83;1.87;;;;;;;-141.97;39.54;45657.13;5091793;28;20168;-83
2023/12/24 09:35:15;;;;;;;2.33;1.97;;;;;;;-141.97;39.80;45701.31;5092884;28;20660;-85
2023/12/24 09:37:40;;;;;;;7.37;3.80;;;;;;;-141.97;39.21;45630.25;5095415;28;20199;-85
2023/12/24 09:40:07;;;;;;;7.90;4.20;;;;;;;-141.97;39.32;45843.47;5099201;28;20250;-84
2023/12/24 09:42:33;;;;;;;10.43;5.30;;;;;;;-141.97;39.22;45847.31;5090938;28;20615;-85
2023/12/24 09:44:59;;;;;;;17.90;9.13;;;;;;;-141.97;39.03;45758.94;5092275;28;20168;-87
2023/12/24 09:47:24;;;;;;;13.50;7.33;;;;;;;-141.97;39.07;46049.03;5093304;28;20204;-85
2023/12/24 09:49:50;;;;;;;18.23;9.40;;;;;;;-141.97;38.62;45768.56;5092331;28;20227;-85
2023/12/24 09:52:15;;;;;;;7.80;4.60;;;;;;;-141.97;38.37;45833.88;5091367;28;20265;-87
2023/12/24 09:54:42;;;;;;;10.07;5.67;;;;;;;-141.97;38.92;46216.19;5091050;28;20255;-87
2023/12/24 09:57:07;;;;;;;18.93;9.07;;;;;;;-141.97;38.77;45693.63;5092274;28;20164;-85
2023/12/24 09:59:33;;;;;;;20.03;11.40;;;;;;;-141.97;39.05;46127.81;5090757;28;20171;-85
2023/12/24 10:01:58;;;;;;;13.10;6.80;;;;;;;-141.97;39.08;45643.69;5092123;28;20549;-85
2023/12/24 10:04:23;;;;;;;9.37;5.90;;;;;;;-141.97;39.47;45993.31;5090352;28;20168;-86
2023/12/24 10:06:52;;;;;;;9.50;6.80;;;;;;;-141.97;40.02;45851.16;5091167;28;20179;-86
2023/12/24 10:09:21;;;;;;;15.10;8.30;;;;;;;-141.97;39.62;45793.53;5091115;28;20206;-86
2023/12/24 10:12:03;;;;;;;7.00;4.57;;;;;;;-141.97;39.54;45847.31;5091059;28;20248;-87
2023/12/24 10:14:28;;;;;;;8.43;4.80;;;;;;;-141.97;39.96;45685.94;5092128;28;20309;-87
2023/12/24 10:16:53;;;;;;;13.87;6.57;;;;;;;-141.97;40.13;46141.25;5090799;28;20589;-85
2023/12/24 10:19:23;;;;;;;36.77;18.83;;;;;;;-141.97;40.00;45739.72;5092237;28;20170;-87
2023/12/24 10:22:02;;;;;;;34.63;18.67;;;;;;;-141.97;40.22;45845.41;5091331;28;20168;-88
2023/12/24 10:24:32;;;;;;;17.57;9.97;;;;;;;-141.97;40.32;45782.00;5091111;28;20252;-87
2023/12/24 10:27:11;;;;;;;13.27;6.50;;;;;;;-141.97;39.52;46147.03;5091922;28;20207;-86
2023/12/24 10:29:41;;;;;;;7.97;4.67;;;;;;;-141.97;38.80;45843.47;5091303;28;20648;-87
2023/12/24 10:32:10;;;;;;;8.03;3.90;;;;;;;-141.97;38.04;45718.59;5093993;28;20160;-88
2023/12/24 10:34:37;;;;;;;8.03;4.40;;;;;;;-141.97;37.74;46095.16;5091920;28;20239;-87
2023/12/24 10:37:19;;;;;;;7.00;3.50;;;;;;;-141.97;37.85;45793.53;5092190;28;20182;-86
2023/12/24 10:39:45;;;;;;;4.70;3.40;;;;;;;-141.97;37.26;45753.19;5092098;28;20242;-84
2023/12/24 10:42:10;;;;;;;7.63;4.40;;;;;;;-141.97;38.06;45816.56;5092137;28;20671;-86
2023/12/24 10:44:36;;;;;;;8.87;4.70;;;;;;;-141.97;37.72;45791.59;5091476;28;20164;-87
2023/12/24 10:47:03;;;;;;;8.17;5.13;;;;;;;-141.97;37.55;45943.38;5091117;28;20561;-86
2023/12/24 10:49:29;;;;;;;2.87;2.17;;;;;;;-141.97;37.45;45757.03;5091521;28;20192;-87
2023/12/24 10:51:56;;;;;;;3.90;1.93;;;;;;;-141.97;37.68;46127.81;5090512;28;20595;-85
2023/12/24 10:54:21;;;;;;;5.50;3.73;;;;;;;-141.97;38.03;46074.00;5091333;28;20247;-87
2023/12/24 10:57:10;;;;;;;9.40;5.57;;;;;;;-141.97;38.10;45912.63;5093422;28;20237;-86
2023/12/24 11:00:12;;;;;;;12.80;3.57;;;;;;;-141.97;37.56;45830.03;4993434;28;20190;-86
2023/12/24 11:02:47;;;;;;;4.07;2.80;;;;;;;-141.97;37.83;45812.72;5009291;28;20170;-86
2023/12/24 11:05:48;;;;;;;5.87;3.20;;;;;;;-141.97;37.22;45824.25;5009434;28;20739;-86
2023/12/24 11:08:19;;;;;;;5.30;3.53;;;;;;;-141.97;37.02;45806.97;5010392;28;20288;-86
2023/12/24 11:10:51;;;;;;;11.23;8.73;;;;;;;-141.97;37.37;45651.38;5010370;28;20222;-86